Time;durP1;ratioP1;P1;durP2;ratioP2;P2;SDS_P1;SDS_P2;PMS_P1;PMS_P2;Temp;Humidity;BMP_temperature;BMP_pressure;BME280_temperature;BME280_humidity;BME280_pressure;Samples;Min_cycle;Max_cycle;Signal;HPM_P1;HPM_P2
2022/04/30 00:00:00;;;;;;;7.0;5.6;;;;;;;8.8;100.0;102630;;;;
2022/04/30 00:01:01;;;;;;;7.0;5.6;;;;;;;8.8;100.0;102630;;;;
2022/04/30 00:02:00;;;;;;;7.0;5.6;;;;;;;8.8;100.0;102630;;;;
2022/04/30 00:03:00;;;;;;;7.0;5.6;;;;;;;8.8;100.0;102630;;;;
2022/04/30 00:04:00;;;;;;;7.0;5.6;;;;;;;8.9;100.0;102630;;;;
2022/04/30 00:05:00;;;;;;;7.0;5.6;;;;;;;8.9;100.0;102630;;;;
2022/04/30 00:06:00;;;;;;;7.0;5.6;;;;;;;8.8;100.0;102630;;;;
2022/04/30 00:07:00;;;;;;;7.0;5.6;;;;;;;8.8;100.0;102630;;;;
2022/04/30 00:08:01;;;;;;;7.0;5.6;;;;;;;8.8;100.0;102630;;;;
2022/04/30 00:09:00;;;;;;;7.0;5.6;;;;;;;8.8;100.0;102630;;;;
2022/04/30 00:10:00;;;;;;;7.0;5.6;;;;;;;8.8;100.0;102630;;;;
2022/04/30 00:11:00;;;;;;;7.0;5.6;;;;;;;8.8;100.0;102630;;;;
2022/04/30 00:12:00;;;;;;;7.0;5.6;;;;;;;8.7;100.0;102630;;;;
2022/04/30 00:13:00;;;;;;;7.0;5.6;;;;;;;8.7;100.0;102630;;;;
2022/04/30 00:14:00;;;;;;;7.0;5.6;;;;;;;8.6;100.0;102620;;;;
2022/04/30 00:15:00;;;;;;;7.0;5.6;;;;;;;8.6;100.0;102620;;;;
2022/04/30 00:16:00;;;;;;;7.0;5.6;;;;;;;8.5;100.0;102620;;;;
2022/04/30 00:17:00;;;;;;;7.0;5.6;;;;;;;8.5;100.0;102620;;;;
2022/04/30 00:18:01;;;;;;;7.0;5.6;;;;;;;8.6;100.0;102620;;;;
2022/04/30 00:19:00;;;;;;;7.0;5.6;;;;;;;8.6;100.0;102620;;;;
2022/04/30 00:20:00;;;;;;;7.3;5.6;;;;;;;8.6;100.0;102620;;;;
2022/04/30 00:21:00;;;;;;;7.3;5.6;;;;;;;8.6;100.0;102620;;;;
2022/04/30 00:22:00;;;;;;;7.3;5.6;;;;;;;8.6;100.0;102630;;;;
2022/04/30 00:23:00;;;;;;;7.3;5.6;;;;;;;8.6;100.0;102630;;;;
2022/04/30 00:24:00;;;;;;;7.3;5.6;;;;;;;8.6;100.0;102630;;;;
2022/04/30 00:25:00;;;;;;;7.3;5.6;;;;;;;8.6;100.0;102630;;;;
2022/04/30 00:26:00;;;;;;;7.3;5.6;;;;;;;8.6;100.0;102620;;;;
2022/04/30 00:27:01;;;;;;;7.3;5.6;;;;;;;8.6;100.0;102620;;;;
2022/04/30 00:28:00;;;;;;;7.3;5.6;;;;;;;8.5;100.0;102630;;;;
2022/04/30 00:29:01;;;;;;;7.3;5.6;;;;;;;8.5;100.0;102630;;;;
2022/04/30 00:30:00;;;;;;;7.3;5.6;;;;;;;8.4;100.0;102630;;;;
2022/04/30 00:31:00;;;;;;;7.3;5.6;;;;;;;8.4;100.0;102630;;;;
2022/04/30 00:32:02;;;;;;;7.3;5.6;;;;;;;8.5;100.0;102630;;;;
2022/04/30 00:33:00;;;;;;;7.3;5.6;;;;;;;8.5;100.0;102630;;;;
2022/04/30 00:34:01;;;;;;;7.3;5.6;;;;;;;8.4;100.0;102630;;;;
2022/04/30 00:35:00;;;;;;;7.3;5.6;;;;;;;8.4;100.0;102630;;;;
2022/04/30 00:36:00;;;;;;;7.3;5.6;;;;;;;8.4;100.0;102620;;;;
2022/04/30 00:37:02;;;;;;;7.3;5.6;;;;;;;8.4;100.0;102620;;;;
2022/04/30 00:38:00;;;;;;;7.3;5.6;;;;;;;8.4;100.0;102620;;;;
2022/04/30 00:39:00;;;;;;;7.3;5.6;;;;;;;8.4;100.0;102620;;;;
2022/04/30 00:40:00;;;;;;;5.5;5.0;;;;;;;8.2;100.0;102620;;;;
2022/04/30 00:41:00;;;;;;;5.5;5.0;;;;;;;8.2;100.0;102620;;;;
2022/04/30 00:42:00;;;;;;;5.5;5.0;;;;;;;8.3;100.0;102620;;;;
2022/04/30 00:43:00;;;;;;;5.5;5.0;;;;;;;8.3;100.0;102620;;;;
2022/04/30 00:44:00;;;;;;;5.5;5.0;;;;;;;8.3;100.0;102610;;;;
2022/04/30 00:45:00;;;;;;;5.5;5.0;;;;;;;8.3;100.0;102610;;;;
2022/04/30 00:46:00;;;;;;;5.5;5.0;;;;;;;8.2;100.0;102620;;;;
2022/04/30 00:47:00;;;;;;;5.5;5.0;;;;;;;8.2;100.0;102620;;;;
2022/04/30 00:48:00;;;;;;;5.5;5.0;;;;;;;8.1;100.0;102610;;;;
2022/04/30 00:49:01;;;;;;;5.5;5.0;;;;;;;8.1;100.0;102610;;;;
2022/04/30 00:50:00;;;;;;;5.5;5.0;;;;;;;8.2;100.0;102610;;;;
2022/04/30 00:51:00;;;;;;;5.5;5.0;;;;;;;8.2;100.0;102610;;;;
2022/04/30 00:52:02;;;;;;;5.5;5.0;;;;;;;8.3;100.0;102610;;;;
2022/04/30 00:53:03;;;;;;;5.5;5.0;;;;;;;8.3;100.0;102610;;;;
2022/04/30 00:54:01;;;;;;;5.5;5.0;;;;;;;8.1;100.0;102610;;;;
2022/04/30 00:55:02;;;;;;;5.5;5.0;;;;;;;8.1;100.0;102610;;;;
2022/04/30 00:56:00;;;;;;;5.5;5.0;;;;;;;8.1;100.0;102610;;;;
2022/04/30 00:57:02;;;;;;;5.5;5.0;;;;;;;8.1;100.0;102610;;;;
2022/04/30 00:58:04;;;;;;;5.5;5.0;;;;;;;7.9;100.0;102610;;;;
2022/04/30 00:59:05;;;;;;;5.5;5.0;;;;;;;7.9;100.0;102610;;;;
2022/04/30 01:00:00;;;;;;;6.1;5.1;;;;;;;8.0;100.0;102600;;;;
2022/04/30 01:01:00;;;;;;;6.1;5.1;;;;;;;8.0;100.0;102600;;;;
2022/04/30 01:02:00;;;;;;;6.1;5.1;;;;;;;8.1;100.0;102600;;;;
2022/04/30 01:03:00;;;;;;;6.1;5.1;;;;;;;8.1;100.0;102600;;;;
2022/04/30 01:04:00;;;;;;;6.1;5.1;;;;;;;7.8;100.0;102610;;;;
2022/04/30 01:05:00;;;;;;;6.1;5.1;;;;;;;7.8;100.0;102610;;;;
2022/04/30 01:06:00;;;;;;;6.1;5.1;;;;;;;7.9;100.0;102600;;;;
2022/04/30 01:07:08;;;;;;;6.1;5.1;;;;;;;7.9;100.0;102600;;;;
2022/04/30 01:08:00;;;;;;;6.1;5.1;;;;;;;7.9;100.0;102600;;;;
2022/04/30 01:09:00;;;;;;;6.1;5.1;;;;;;;7.9;100.0;102600;;;;
2022/04/30 01:10:00;;;;;;;6.1;5.1;;;;;;;7.8;100.0;102600;;;;
2022/04/30 01:11:01;;;;;;;6.1;5.1;;;;;;;7.8;100.0;102600;;;;
2022/04/30 01:12:01;;;;;;;6.1;5.1;;;;;;;7.9;100.0;102600;;;;
2022/04/30 01:13:00;;;;;;;6.1;5.1;;;;;;;7.9;100.0;102600;;;;
2022/04/30 01:14:00;;;;;;;6.1;5.1;;;;;;;7.8;100.0;102600;;;;
2022/04/30 01:15:04;;;;;;;6.1;5.1;;;;;;;7.8;100.0;102600;;;;
2022/04/30 01:16:04;;;;;;;6.1;5.1;;;;;;;7.8;100.0;102600;;;;
2022/04/30 01:17:05;;;;;;;6.1;5.1;;;;;;;7.8;100.0;102600;;;;
2022/04/30 01:18:01;;;;;;;6.1;5.1;;;;;;;7.9;100.0;102600;;;;
2022/04/30 01:19:01;;;;;;;6.1;5.1;;;;;;;7.9;100.0;102600;;;;
2022/04/30 01:20:00;;;;;;;6.3;5.7;;;;;;;7.8;100.0;102600;;;;
2022/04/30 01:21:03;;;;;;;6.3;5.7;;;;;;;7.8;100.0;102600;;;;
2022/04/30 01:22:01;;;;;;;6.3;5.7;;;;;;;7.6;100.0;102600;;;;
2022/04/30 01:23:01;;;;;;;6.3;5.7;;;;;;;7.6;100.0;102600;;;;
2022/04/30 01:24:00;;;;;;;6.3;5.7;;;;;;;7.7;100.0;102600;;;;
2022/04/30 01:25:01;;;;;;;6.3;5.7;;;;;;;7.7;100.0;102600;;;;
2022/04/30 01:26:02;;;;;;;6.3;5.7;;;;;;;7.7;100.0;102590;;;;
2022/04/30 01:27:01;;;;;;;6.3;5.7;;;;;;;7.7;100.0;102590;;;;
2022/04/30 01:28:00;;;;;;;6.3;5.7;;;;;;;7.7;100.0;102590;;;;
2022/04/30 01:29:00;;;;;;;6.3;5.7;;;;;;;7.7;100.0;102590;;;;
2022/04/30 01:30:01;;;;;;;6.3;5.7;;;;;;;7.7;100.0;102590;;;;
2022/04/30 01:31:00;;;;;;;6.3;5.7;;;;;;;7.7;100.0;102590;;;;
2022/04/30 01:38:00;;;;;;;6.3;5.7;;;;;;;7.6;100.0;102590;;;;
2022/04/30 01:39:01;;;;;;;6.3;5.7;;;;;;;7.6;100.0;102590;;;;
2022/04/30 01:40:03;;;;;;;7.2;5.6;;;;;;;7.6;100.0;102590;;;;
2022/04/30 01:41:00;;;;;;;7.2;5.6;;;;;;;7.6;100.0;102590;;;;
2022/04/30 01:42:04;;;;;;;7.2;5.6;;;;;;;7.4;100.0;102580;;;;
2022/04/30 01:43:01;;;;;;;7.2;5.6;;;;;;;7.4;100.0;102580;;;;
2022/04/30 01:44:00;;;;;;;7.2;5.6;;;;;;;7.4;100.0;102590;;;;
2022/04/30 01:45:00;;;;;;;7.2;5.6;;;;;;;7.4;100.0;102590;;;;
2022/04/30 01:46:01;;;;;;;7.2;5.6;;;;;;;7.6;100.0;102590;;;;
2022/04/30 01:47:00;;;;;;;7.2;5.6;;;;;;;7.6;100.0;102590;;;;
2022/04/30 01:48:02;;;;;;;7.2;5.6;;;;;;;7.5;100.0;102580;;;;
2022/04/30 01:49:00;;;;;;;7.2;5.6;;;;;;;7.5;100.0;102580;;;;
2022/04/30 01:50:00;;;;;;;7.2;5.6;;;;;;;7.5;100.0;102590;;;;
2022/04/30 01:51:00;;;;;;;7.2;5.6;;;;;;;7.5;100.0;102590;;;;
2022/04/30 01:52:05;;;;;;;7.2;5.6;;;;;;;7.6;100.0;102580;;;;
2022/04/30 01:53:00;;;;;;;7.2;5.6;;;;;;;7.6;100.0;102580;;;;
2022/04/30 01:54:00;;;;;;;7.2;5.6;;;;;;;7.5;100.0;102590;;;;
2022/04/30 01:55:00;;;;;;;7.2;5.6;;;;;;;7.5;100.0;102590;;;;
2022/04/30 01:56:00;;;;;;;7.2;5.6;;;;;;;7.4;100.0;102580;;;;
2022/04/30 01:57:00;;;;;;;7.2;5.6;;;;;;;7.4;100.0;102580;;;;
2022/04/30 01:58:00;;;;;;;7.2;5.6;;;;;;;7.4;100.0;102580;;;;
2022/04/30 01:59:00;;;;;;;7.2;5.6;;;;;;;7.4;100.0;102580;;;;
2022/04/30 02:00:01;;;;;;;7.5;6.1;;;;;;;7.5;100.0;102580;;;;
2022/04/30 02:01:02;;;;;;;7.5;6.1;;;;;;;7.5;100.0;102580;;;;
2022/04/30 02:02:01;;;;;;;7.5;6.1;;;;;;;7.4;100.0;102580;;;;
2022/04/30 02:03:08;;;;;;;7.5;6.1;;;;;;;7.4;100.0;102580;;;;
2022/04/30 02:04:02;;;;;;;7.5;6.1;;;;;;;7.4;100.0;102580;;;;
2022/04/30 02:05:01;;;;;;;7.5;6.1;;;;;;;7.4;100.0;102580;;;;
2022/04/30 02:06:00;;;;;;;7.5;6.1;;;;;;;7.2;100.0;102580;;;;
2022/04/30 02:07:00;;;;;;;7.5;6.1;;;;;;;7.2;100.0;102580;;;;
2022/04/30 02:08:04;;;;;;;7.5;6.1;;;;;;;7.2;100.0;102580;;;;
2022/04/30 02:09:00;;;;;;;7.5;6.1;;;;;;;7.2;100.0;102580;;;;
2022/04/30 02:10:00;;;;;;;7.5;6.1;;;;;;;7.3;100.0;102570;;;;
2022/04/30 02:11:00;;;;;;;7.5;6.1;;;;;;;7.3;100.0;102570;;;;
2022/04/30 02:12:01;;;;;;;7.5;6.1;;;;;;;7.3;100.0;102580;;;;
2022/04/30 02:13:00;;;;;;;7.5;6.1;;;;;;;7.3;100.0;102580;;;;
2022/04/30 02:14:01;;;;;;;7.5;6.1;;;;;;;7.1;100.0;102570;;;;
2022/04/30 02:15:00;;;;;;;7.5;6.1;;;;;;;7.1;100.0;102570;;;;
2022/04/30 02:16:00;;;;;;;7.5;6.1;;;;;;;7.1;100.0;102570;;;;
2022/04/30 02:17:01;;;;;;;7.5;6.1;;;;;;;7.1;100.0;102570;;;;
2022/04/30 02:18:01;;;;;;;7.5;6.1;;;;;;;7.1;100.0;102570;;;;
2022/04/30 02:19:01;;;;;;;7.5;6.1;;;;;;;7.1;100.0;102570;;;;
2022/04/30 02:21:00;;;;;;;7.8;7.1;;;;;;;7.2;100.0;102570;;;;
2022/04/30 02:22:00;;;;;;;7.8;7.1;;;;;;;7.0;100.0;102570;;;;
2022/04/30 02:23:01;;;;;;;7.8;7.1;;;;;;;7.0;100.0;102570;;;;
2022/04/30 02:24:00;;;;;;;7.8;7.1;;;;;;;7.0;100.0;102570;;;;
2022/04/30 02:25:00;;;;;;;7.8;7.1;;;;;;;7.0;100.0;102570;;;;
2022/04/30 02:26:04;;;;;;;7.8;7.1;;;;;;;7.1;100.0;102560;;;;
2022/04/30 02:27:01;;;;;;;7.8;7.1;;;;;;;7.1;100.0;102560;;;;
2022/04/30 02:28:04;;;;;;;7.8;7.1;;;;;;;7.1;100.0;102560;;;;
2022/04/30 02:29:01;;;;;;;7.8;7.1;;;;;;;7.1;100.0;102560;;;;
2022/04/30 02:30:00;;;;;;;7.8;7.1;;;;;;;7.1;100.0;102560;;;;
2022/04/30 02:31:00;;;;;;;7.8;7.1;;;;;;;7.1;100.0;102560;;;;
2022/04/30 02:32:00;;;;;;;7.8;7.1;;;;;;;7.1;100.0;102560;;;;
2022/04/30 02:33:03;;;;;;;7.8;7.1;;;;;;;7.1;100.0;102560;;;;
2022/04/30 02:34:00;;;;;;;7.8;7.1;;;;;;;6.8;100.0;102560;;;;
2022/04/30 02:35:00;;;;;;;7.8;7.1;;;;;;;6.8;100.0;102560;;;;
2022/04/30 02:36:00;;;;;;;7.8;7.1;;;;;;;6.9;100.0;102560;;;;
2022/04/30 02:37:00;;;;;;;7.8;7.1;;;;;;;6.9;100.0;102560;;;;
2022/04/30 02:38:01;;;;;;;7.8;7.1;;;;;;;6.9;100.0;102560;;;;
2022/04/30 02:39:00;;;;;;;7.8;7.1;;;;;;;6.9;100.0;102560;;;;
2022/04/30 02:40:00;;;;;;;10.0;7.4;;;;;;;6.9;100.0;102560;;;;
2022/04/30 02:41:00;;;;;;;10.0;7.4;;;;;;;6.9;100.0;102560;;;;
2022/04/30 02:42:00;;;;;;;10.0;7.4;;;;;;;6.9;100.0;102560;;;;
2022/04/30 02:43:06;;;;;;;10.0;7.4;;;;;;;6.9;100.0;102560;;;;
2022/04/30 02:44:00;;;;;;;10.0;7.4;;;;;;;6.9;100.0;102550;;;;
2022/04/30 02:45:00;;;;;;;10.0;7.4;;;;;;;6.9;100.0;102550;;;;
2022/04/30 02:46:00;;;;;;;10.0;7.4;;;;;;;6.9;100.0;102560;;;;
2022/04/30 02:47:00;;;;;;;10.0;7.4;;;;;;;6.9;100.0;102560;;;;
2022/04/30 02:48:00;;;;;;;10.0;7.4;;;;;;;6.9;100.0;102550;;;;
2022/04/30 02:49:00;;;;;;;10.0;7.4;;;;;;;6.9;100.0;102550;;;;
2022/04/30 02:50:00;;;;;;;10.0;7.4;;;;;;;6.8;100.0;102550;;;;
2022/04/30 02:51:00;;;;;;;10.0;7.4;;;;;;;6.8;100.0;102550;;;;
2022/04/30 02:52:00;;;;;;;10.0;7.4;;;;;;;6.8;100.0;102550;;;;
2022/04/30 02:53:00;;;;;;;10.0;7.4;;;;;;;6.8;100.0;102550;;;;
2022/04/30 02:54:00;;;;;;;10.0;7.4;;;;;;;6.7;100.0;102550;;;;
2022/04/30 02:55:00;;;;;;;10.0;7.4;;;;;;;6.7;100.0;102550;;;;
2022/04/30 02:56:00;;;;;;;10.0;7.4;;;;;;;6.8;100.0;102550;;;;
2022/04/30 02:57:01;;;;;;;10.0;7.4;;;;;;;6.8;100.0;102550;;;;
2022/04/30 03:00:04;;;;;;;9.1;8.0;;;;;;;6.8;100.0;102550;;;;
2022/04/30 03:01:00;;;;;;;9.1;8.0;;;;;;;6.8;100.0;102550;;;;
2022/04/30 03:02:00;;;;;;;9.1;8.0;;;;;;;6.7;100.0;102540;;;;
2022/04/30 03:03:00;;;;;;;9.1;8.0;;;;;;;6.7;100.0;102540;;;;
2022/04/30 03:04:02;;;;;;;9.1;8.0;;;;;;;6.8;100.0;102540;;;;
2022/04/30 03:05:00;;;;;;;9.1;8.0;;;;;;;6.8;100.0;102540;;;;
2022/04/30 03:06:01;;;;;;;9.1;8.0;;;;;;;6.8;100.0;102540;;;;
2022/04/30 03:07:00;;;;;;;9.1;8.0;;;;;;;6.8;100.0;102540;;;;
2022/04/30 03:08:04;;;;;;;9.1;8.0;;;;;;;6.8;100.0;102540;;;;
2022/04/30 03:09:00;;;;;;;9.1;8.0;;;;;;;6.8;100.0;102540;;;;
2022/04/30 03:10:00;;;;;;;9.1;8.0;;;;;;;6.7;100.0;102540;;;;
2022/04/30 03:11:03;;;;;;;9.1;8.0;;;;;;;6.7;100.0;102540;;;;
2022/04/30 03:12:00;;;;;;;9.1;8.0;;;;;;;6.7;100.0;102540;;;;
2022/04/30 03:13:00;;;;;;;9.1;8.0;;;;;;;6.7;100.0;102540;;;;
2022/04/30 03:14:00;;;;;;;9.1;8.0;;;;;;;6.6;100.0;102540;;;;
2022/04/30 03:15:00;;;;;;;9.1;8.0;;;;;;;6.6;100.0;102540;;;;
2022/04/30 03:21:41;;;;;;;9.1;8.0;;;;;;;6.5;100.0;102540;;;;
2022/04/30 03:22:00;;;;;;;9.6;8.6;;;;;;;6.6;100.0;102540;;;;
2022/04/30 03:23:00;;;;;;;9.6;8.6;;;;;;;6.6;100.0;102540;;;;
2022/04/30 03:24:00;;;;;;;9.6;8.6;;;;;;;6.6;100.0;102540;;;;
2022/04/30 03:25:00;;;;;;;9.6;8.6;;;;;;;6.6;100.0;102540;;;;
2022/04/30 03:26:00;;;;;;;9.6;8.6;;;;;;;6.6;100.0;102540;;;;
2022/04/30 03:27:00;;;;;;;9.6;8.6;;;;;;;6.6;100.0;102540;;;;
2022/04/30 03:28:00;;;;;;;9.6;8.6;;;;;;;6.6;100.0;102540;;;;
2022/04/30 03:29:00;;;;;;;9.6;8.6;;;;;;;6.6;100.0;102540;;;;
2022/04/30 03:30:00;;;;;;;9.6;8.6;;;;;;;6.6;100.0;102540;;;;
2022/04/30 03:31:00;;;;;;;9.6;8.6;;;;;;;6.6;100.0;102540;;;;
2022/04/30 03:32:01;;;;;;;9.6;8.6;;;;;;;6.6;100.0;102540;;;;
2022/04/30 03:33:00;;;;;;;9.6;8.6;;;;;;;6.6;100.0;102540;;;;
2022/04/30 03:34:01;;;;;;;9.6;8.6;;;;;;;6.6;100.0;102540;;;;
2022/04/30 03:35:00;;;;;;;9.6;8.6;;;;;;;6.6;100.0;102540;;;;
2022/04/30 03:36:00;;;;;;;9.6;8.6;;;;;;;6.6;100.0;102530;;;;
2022/04/30 03:37:00;;;;;;;9.6;8.6;;;;;;;6.6;100.0;102530;;;;
2022/04/30 03:38:00;;;;;;;9.6;8.6;;;;;;;6.5;100.0;102530;;;;
2022/04/30 03:39:00;;;;;;;10.3;9.3;;;;;;;6.5;100.0;102530;;;;
2022/04/30 03:40:00;;;;;;;10.3;9.3;;;;;;;6.6;100.0;102530;;;;
2022/04/30 03:41:00;;;;;;;10.3;9.3;;;;;;;6.6;100.0;102530;;;;
2022/04/30 03:42:01;;;;;;;10.3;9.3;;;;;;;6.5;100.0;102530;;;;
2022/04/30 03:43:01;;;;;;;10.3;9.3;;;;;;;6.5;100.0;102530;;;;
2022/04/30 03:44:01;;;;;;;10.3;9.3;;;;;;;6.5;100.0;102530;;;;
2022/04/30 03:45:01;;;;;;;10.3;9.3;;;;;;;6.5;100.0;102530;;;;
2022/04/30 03:46:00;;;;;;;10.3;9.3;;;;;;;6.5;100.0;102530;;;;
2022/04/30 03:47:00;;;;;;;10.3;9.3;;;;;;;6.5;100.0;102530;;;;
2022/04/30 03:48:00;;;;;;;10.3;9.3;;;;;;;6.5;100.0;102530;;;;
2022/04/30 03:49:00;;;;;;;10.3;9.3;;;;;;;6.5;100.0;102530;;;;
2022/04/30 03:50:00;;;;;;;10.3;9.3;;;;;;;6.4;100.0;102530;;;;
2022/04/30 03:51:00;;;;;;;10.3;9.3;;;;;;;6.4;100.0;102530;;;;
2022/04/30 03:52:00;;;;;;;10.3;9.3;;;;;;;6.5;100.0;102530;;;;
2022/04/30 03:53:00;;;;;;;10.3;9.3;;;;;;;6.5;100.0;102530;;;;
2022/04/30 03:54:00;;;;;;;10.3;9.3;;;;;;;6.4;100.0;102530;;;;
2022/04/30 03:55:00;;;;;;;10.3;9.3;;;;;;;6.4;100.0;102530;;;;
2022/04/30 03:56:00;;;;;;;10.3;9.3;;;;;;;6.4;100.0;102520;;;;
2022/04/30 03:57:00;;;;;;;10.3;9.3;;;;;;;6.4;100.0;102520;;;;
2022/04/30 03:58:00;;;;;;;10.3;9.3;;;;;;;6.3;100.0;102520;;;;
2022/04/30 03:59:01;;;;;;;11.2;9.4;;;;;;;6.3;100.0;102520;;;;
2022/04/30 04:00:00;;;;;;;11.2;9.4;;;;;;;6.4;100.0;102520;;;;
2022/04/30 04:01:00;;;;;;;11.2;9.4;;;;;;;6.4;100.0;102520;;;;
2022/04/30 04:02:00;;;;;;;11.2;9.4;;;;;;;6.3;100.0;102530;;;;
2022/04/30 04:03:00;;;;;;;11.2;9.4;;;;;;;6.3;100.0;102530;;;;
2022/04/30 04:04:00;;;;;;;11.2;9.4;;;;;;;6.4;100.0;102520;;;;
2022/04/30 04:05:00;;;;;;;11.2;9.4;;;;;;;6.4;100.0;102520;;;;
2022/04/30 04:06:00;;;;;;;11.2;9.4;;;;;;;6.3;100.0;102520;;;;
2022/04/30 04:07:00;;;;;;;11.2;9.4;;;;;;;6.3;100.0;102520;;;;
2022/04/30 04:08:00;;;;;;;11.2;9.4;;;;;;;6.2;100.0;102520;;;;
2022/04/30 04:09:00;;;;;;;11.2;9.4;;;;;;;6.2;100.0;102520;;;;
2022/04/30 04:10:00;;;;;;;11.2;9.4;;;;;;;6.3;100.0;102520;;;;
2022/04/30 04:11:00;;;;;;;11.2;9.4;;;;;;;6.3;100.0;102520;;;;
2022/04/30 04:12:00;;;;;;;11.2;9.4;;;;;;;6.2;100.0;102520;;;;
2022/04/30 04:17:37;;;;;;;11.2;9.4;;;;;;;6.2;100.0;102520;;;;
2022/04/30 04:18:00;;;;;;;11.2;9.4;;;;;;;6.2;100.0;102520;;;;
2022/04/30 04:19:00;;;;;;;10.8;9.7;;;;;;;6.2;100.0;102520;;;;
2022/04/30 04:20:00;;;;;;;10.8;9.7;;;;;;;6.2;100.0;102520;;;;
2022/04/30 04:21:00;;;;;;;10.8;9.7;;;;;;;6.2;100.0;102520;;;;
2022/04/30 04:22:00;;;;;;;10.8;9.7;;;;;;;6.1;100.0;102520;;;;
2022/04/30 04:23:00;;;;;;;10.8;9.7;;;;;;;6.1;100.0;102520;;;;
2022/04/30 04:26:00;;;;;;;10.8;9.7;;;;;;;6.2;100.0;102520;;;;
2022/04/30 04:27:01;;;;;;;10.8;9.7;;;;;;;6.2;100.0;102520;;;;
2022/04/30 04:28:00;;;;;;;10.8;9.7;;;;;;;6.1;100.0;102520;;;;
2022/04/30 04:29:00;;;;;;;10.8;9.7;;;;;;;6.1;100.0;102520;;;;
2022/04/30 04:30:00;;;;;;;10.8;9.7;;;;;;;6.1;100.0;102530;;;;
2022/04/30 04:31:00;;;;;;;10.8;9.7;;;;;;;6.1;100.0;102530;;;;
2022/04/30 04:32:00;;;;;;;10.8;9.7;;;;;;;6.1;100.0;102530;;;;
2022/04/30 04:33:00;;;;;;;10.8;9.7;;;;;;;6.1;100.0;102530;;;;
2022/04/30 04:34:00;;;;;;;10.8;9.7;;;;;;;6.1;100.0;102520;;;;
2022/04/30 04:35:00;;;;;;;10.8;9.7;;;;;;;6.1;100.0;102520;;;;
2022/04/30 04:36:00;;;;;;;10.8;9.7;;;;;;;6.1;100.0;102530;;;;
2022/04/30 04:37:00;;;;;;;10.8;9.7;;;;;;;6.1;100.0;102530;;;;
2022/04/30 04:38:00;;;;;;;10.8;9.7;;;;;;;6.1;100.0;102530;;;;
2022/04/30 04:39:00;;;;;;;13.7;11.4;;;;;;;6.1;100.0;102530;;;;
2022/04/30 04:40:00;;;;;;;13.7;11.4;;;;;;;6.1;100.0;102530;;;;
2022/04/30 04:41:00;;;;;;;13.7;11.4;;;;;;;6.1;100.0;102530;;;;
2022/04/30 04:42:00;;;;;;;13.7;11.4;;;;;;;6.0;100.0;102530;;;;
2022/04/30 04:43:00;;;;;;;13.7;11.4;;;;;;;6.0;100.0;102530;;;;
2022/04/30 04:44:02;;;;;;;13.7;11.4;;;;;;;6.0;100.0;102530;;;;
2022/04/30 04:45:00;;;;;;;13.7;11.4;;;;;;;6.0;100.0;102530;;;;
2022/04/30 04:46:01;;;;;;;13.7;11.4;;;;;;;6.0;100.0;102530;;;;
2022/04/30 04:47:00;;;;;;;13.7;11.4;;;;;;;6.0;100.0;102530;;;;
2022/04/30 04:48:00;;;;;;;13.7;11.4;;;;;;;6.0;100.0;102540;;;;
2022/04/30 04:49:00;;;;;;;13.7;11.4;;;;;;;6.0;100.0;102540;;;;
2022/04/30 04:50:01;;;;;;;13.7;11.4;;;;;;;6.0;100.0;102540;;;;
2022/04/30 04:51:00;;;;;;;13.7;11.4;;;;;;;6.0;100.0;102540;;;;
2022/04/30 04:52:01;;;;;;;13.7;11.4;;;;;;;6.1;100.0;102540;;;;
2022/04/30 04:53:00;;;;;;;13.7;11.4;;;;;;;6.1;100.0;102540;;;;
2022/04/30 04:54:01;;;;;;;13.7;11.4;;;;;;;6.1;100.0;102540;;;;
2022/04/30 04:55:00;;;;;;;13.7;11.4;;;;;;;6.1;100.0;102540;;;;
2022/04/30 04:56:02;;;;;;;13.7;11.4;;;;;;;6.1;100.0;102540;;;;
2022/04/30 04:57:00;;;;;;;13.7;11.4;;;;;;;6.1;100.0;102540;;;;
2022/04/30 04:58:00;;;;;;;13.7;11.4;;;;;;;6.1;100.0;102550;;;;
2022/04/30 04:59:00;;;;;;;12.6;11.2;;;;;;;6.1;100.0;102550;;;;
2022/04/30 05:00:00;;;;;;;12.6;11.2;;;;;;;6.1;100.0;102550;;;;
2022/04/30 05:01:00;;;;;;;12.6;11.2;;;;;;;6.1;100.0;102550;;;;
2022/04/30 05:02:02;;;;;;;12.6;11.2;;;;;;;6.1;100.0;102550;;;;
2022/04/30 05:03:00;;;;;;;12.6;11.2;;;;;;;6.1;100.0;102550;;;;
2022/04/30 05:04:00;;;;;;;12.6;11.2;;;;;;;6.2;100.0;102550;;;;
2022/04/30 05:05:00;;;;;;;12.6;11.2;;;;;;;6.2;100.0;102550;;;;
2022/04/30 05:06:00;;;;;;;12.6;11.2;;;;;;;6.2;100.0;102560;;;;
2022/04/30 05:07:00;;;;;;;12.6;11.2;;;;;;;6.2;100.0;102560;;;;
2022/04/30 05:08:00;;;;;;;12.6;11.2;;;;;;;6.2;100.0;102560;;;;
2022/04/30 05:09:00;;;;;;;12.6;11.2;;;;;;;6.2;100.0;102560;;;;
2022/04/30 05:10:00;;;;;;;12.6;11.2;;;;;;;6.3;100.0;102560;;;;
2022/04/30 05:11:00;;;;;;;12.6;11.2;;;;;;;6.3;100.0;102560;;;;
2022/04/30 05:12:01;;;;;;;12.6;11.2;;;;;;;6.3;100.0;102560;;;;
2022/04/30 05:13:00;;;;;;;12.6;11.2;;;;;;;6.3;100.0;102560;;;;
2022/04/30 05:14:00;;;;;;;12.6;11.2;;;;;;;6.3;100.0;102560;;;;
2022/04/30 05:15:00;;;;;;;12.6;11.2;;;;;;;6.3;100.0;102560;;;;
2022/04/30 05:16:00;;;;;;;12.6;11.2;;;;;;;6.3;100.0;102560;;;;
2022/04/30 05:17:05;;;;;;;12.6;11.2;;;;;;;6.3;100.0;102560;;;;
2022/04/30 05:18:00;;;;;;;12.6;11.2;;;;;;;6.4;100.0;102570;;;;
2022/04/30 05:19:00;;;;;;;14.2;11.6;;;;;;;6.4;100.0;102570;;;;
2022/04/30 05:20:00;;;;;;;14.2;11.6;;;;;;;6.5;100.0;102560;;;;
2022/04/30 05:21:00;;;;;;;14.2;11.6;;;;;;;6.5;100.0;102560;;;;
2022/04/30 05:22:00;;;;;;;14.2;11.6;;;;;;;6.5;100.0;102570;;;;
2022/04/30 05:23:00;;;;;;;14.2;11.6;;;;;;;6.5;100.0;102570;;;;
2022/04/30 05:24:00;;;;;;;14.2;11.6;;;;;;;6.4;100.0;102570;;;;
2022/04/30 05:25:00;;;;;;;14.2;11.6;;;;;;;6.4;100.0;102570;;;;
2022/04/30 05:26:00;;;;;;;14.2;11.6;;;;;;;6.5;100.0;102570;;;;
2022/04/30 05:27:01;;;;;;;14.2;11.6;;;;;;;6.5;100.0;102570;;;;
2022/04/30 05:28:00;;;;;;;14.2;11.6;;;;;;;6.4;100.0;102570;;;;
2022/04/30 05:29:00;;;;;;;14.2;11.6;;;;;;;6.4;100.0;102570;;;;
2022/04/30 05:30:00;;;;;;;14.2;11.6;;;;;;;6.5;100.0;102570;;;;
2022/04/30 05:31:00;;;;;;;14.2;11.6;;;;;;;6.5;100.0;102570;;;;
2022/04/30 05:32:00;;;;;;;14.2;11.6;;;;;;;6.5;100.0;102570;;;;
2022/04/30 05:33:00;;;;;;;14.2;11.6;;;;;;;6.5;100.0;102570;;;;
2022/04/30 05:34:00;;;;;;;14.2;11.6;;;;;;;6.6;100.0;102570;;;;
2022/04/30 05:35:00;;;;;;;14.2;11.6;;;;;;;6.6;100.0;102570;;;;
2022/04/30 05:36:00;;;;;;;14.2;11.6;;;;;;;6.5;100.0;102570;;;;
2022/04/30 05:37:00;;;;;;;14.2;11.6;;;;;;;6.5;100.0;102570;;;;
2022/04/30 05:38:00;;;;;;;14.2;11.6;;;;;;;6.5;100.0;102570;;;;
2022/04/30 05:39:00;;;;;;;13.6;12.2;;;;;;;6.5;100.0;102570;;;;
2022/04/30 05:40:00;;;;;;;13.6;12.2;;;;;;;6.6;100.0;102570;;;;
2022/04/30 05:41:01;;;;;;;13.6;12.2;;;;;;;6.6;100.0;102570;;;;
2022/04/30 05:42:00;;;;;;;13.6;12.2;;;;;;;6.7;100.0;102570;;;;
2022/04/30 05:43:00;;;;;;;13.6;12.2;;;;;;;6.7;100.0;102570;;;;
2022/04/30 05:44:00;;;;;;;13.6;12.2;;;;;;;6.8;100.0;102570;;;;
2022/04/30 05:45:00;;;;;;;13.6;12.2;;;;;;;6.8;100.0;102570;;;;
2022/04/30 05:46:00;;;;;;;13.6;12.2;;;;;;;6.8;100.0;102570;;;;
2022/04/30 05:47:00;;;;;;;13.6;12.2;;;;;;;6.8;100.0;102570;;;;
2022/04/30 05:48:00;;;;;;;13.6;12.2;;;;;;;6.8;100.0;102570;;;;
2022/04/30 05:49:00;;;;;;;13.6;12.2;;;;;;;6.8;100.0;102570;;;;
2022/04/30 05:50:00;;;;;;;13.6;12.2;;;;;;;6.8;100.0;102570;;;;
2022/04/30 05:51:01;;;;;;;13.6;12.2;;;;;;;6.8;100.0;102570;;;;
2022/04/30 05:52:00;;;;;;;13.6;12.2;;;;;;;6.9;100.0;102570;;;;
2022/04/30 05:53:00;;;;;;;13.6;12.2;;;;;;;6.9;100.0;102570;;;;
2022/04/30 05:54:00;;;;;;;13.6;12.2;;;;;;;7.0;100.0;102570;;;;
2022/04/30 05:55:02;;;;;;;13.6;12.2;;;;;;;7.0;100.0;102570;;;;
2022/04/30 05:56:00;;;;;;;13.6;12.2;;;;;;;7.0;100.0;102570;;;;
2022/04/30 05:57:00;;;;;;;13.6;12.2;;;;;;;7.0;100.0;102570;;;;
2022/04/30 05:58:00;;;;;;;13.6;12.2;;;;;;;7.1;100.0;102560;;;;
2022/04/30 05:59:00;;;;;;;15.2;12.7;;;;;;;7.1;100.0;102560;;;;
2022/04/30 06:00:00;;;;;;;15.2;12.7;;;;;;;7.2;100.0;102570;;;;
2022/04/30 06:01:01;;;;;;;15.2;12.7;;;;;;;7.2;100.0;102570;;;;
2022/04/30 06:02:00;;;;;;;15.2;12.7;;;;;;;7.2;100.0;102570;;;;
2022/04/30 06:03:00;;;;;;;15.2;12.7;;;;;;;7.2;100.0;102570;;;;
2022/04/30 06:04:00;;;;;;;15.2;12.7;;;;;;;7.2;100.0;102570;;;;
2022/04/30 06:05:00;;;;;;;15.2;12.7;;;;;;;7.2;100.0;102570;;;;
2022/04/30 06:06:00;;;;;;;15.2;12.7;;;;;;;7.3;100.0;102570;;;;
2022/04/30 06:07:00;;;;;;;15.2;12.7;;;;;;;7.3;100.0;102570;;;;
2022/04/30 06:08:00;;;;;;;15.2;12.7;;;;;;;7.3;100.0;102570;;;;
2022/04/30 06:09:00;;;;;;;15.2;12.7;;;;;;;7.3;100.0;102570;;;;
2022/04/30 06:10:00;;;;;;;15.2;12.7;;;;;;;7.4;100.0;102570;;;;
2022/04/30 06:11:01;;;;;;;15.2;12.7;;;;;;;7.4;100.0;102570;;;;
2022/04/30 06:12:00;;;;;;;15.2;12.7;;;;;;;7.4;100.0;102570;;;;
2022/04/30 06:13:00;;;;;;;15.2;12.7;;;;;;;7.4;100.0;102570;;;;
2022/04/30 06:14:00;;;;;;;15.2;12.7;;;;;;;7.5;100.0;102570;;;;
2022/04/30 06:15:00;;;;;;;15.2;12.7;;;;;;;7.5;100.0;102570;;;;
2022/04/30 06:16:00;;;;;;;15.2;12.7;;;;;;;7.6;100.0;102570;;;;
2022/04/30 06:17:00;;;;;;;15.2;12.7;;;;;;;7.6;100.0;102570;;;;
2022/04/30 06:18:00;;;;;;;15.2;12.7;;;;;;;7.6;100.0;102570;;;;
2022/04/30 06:19:10;;;;;;;13.7;11.7;;;;;;;7.6;100.0;102570;;;;
2022/04/30 06:20:00;;;;;;;13.7;11.7;;;;;;;7.7;100.0;102570;;;;
2022/04/30 06:21:01;;;;;;;13.7;11.7;;;;;;;7.7;100.0;102570;;;;
2022/04/30 06:22:00;;;;;;;13.7;11.7;;;;;;;7.8;100.0;102570;;;;
2022/04/30 06:23:00;;;;;;;13.7;11.7;;;;;;;7.8;100.0;102570;;;;
2022/04/30 06:24:06;;;;;;;13.7;11.7;;;;;;;7.9;100.0;102570;;;;
2022/04/30 06:25:00;;;;;;;13.7;11.7;;;;;;;7.9;100.0;102570;;;;
2022/04/30 06:26:00;;;;;;;13.7;11.7;;;;;;;7.8;100.0;102570;;;;
2022/04/30 06:27:00;;;;;;;13.7;11.7;;;;;;;7.8;100.0;102570;;;;
2022/04/30 06:28:01;;;;;;;13.7;11.7;;;;;;;7.9;100.0;102570;;;;
2022/04/30 06:29:00;;;;;;;13.7;11.7;;;;;;;7.9;100.0;102570;;;;
2022/04/30 06:30:00;;;;;;;13.7;11.7;;;;;;;7.9;100.0;102570;;;;
2022/04/30 06:31:01;;;;;;;13.7;11.7;;;;;;;7.9;100.0;102570;;;;
2022/04/30 06:32:00;;;;;;;13.7;11.7;;;;;;;7.9;100.0;102570;;;;
2022/04/30 06:33:00;;;;;;;13.7;11.7;;;;;;;7.9;100.0;102570;;;;
2022/04/30 06:34:00;;;;;;;13.7;11.7;;;;;;;7.9;100.0;102570;;;;
2022/04/30 06:35:00;;;;;;;13.7;11.7;;;;;;;7.9;100.0;102570;;;;
2022/04/30 06:36:00;;;;;;;13.7;11.7;;;;;;;8.0;100.0;102570;;;;
2022/04/30 06:37:00;;;;;;;13.7;11.7;;;;;;;8.0;100.0;102570;;;;
2022/04/30 06:38:00;;;;;;;13.7;11.7;;;;;;;8.1;100.0;102570;;;;
2022/04/30 06:39:00;;;;;;;11.0;9.8;;;;;;;8.1;100.0;102570;;;;
2022/04/30 06:40:00;;;;;;;11.0;9.8;;;;;;;8.1;100.0;102580;;;;
2022/04/30 06:41:00;;;;;;;11.0;9.8;;;;;;;8.1;100.0;102580;;;;
2022/04/30 06:42:00;;;;;;;11.0;9.8;;;;;;;8.3;100.0;102570;;;;
2022/04/30 06:43:00;;;;;;;11.0;9.8;;;;;;;8.3;100.0;102570;;;;